Time;durP1;ratioP1;P1;durP2;ratioP2;P2;SDS_P1;SDS_P2;PMS_P1;PMS_P2;Temp;Humidity;BMP_temperature;BMP_pressure;BME280_temperature;BME280_humidity;BME280_pressure;Samples;Min_cycle;Max_cycle;Signal;HPM_P1;HPM_P2
2022/05/17 00:00:51;;;;;;;1.30;0.70;;;;;;;7.12;68.51;99021.73;104931;1271;61122;-26
2022/05/17 00:03:20;;;;;;;4.00;1.00;;;;;;;6.96;68.69;99019.30;104826;1274;61016;-26
2022/05/17 00:05:50;;;;;;;2.10;0.70;;;;;;;6.79;68.94;99016.98;104797;1273;75523;-27
2022/05/17 00:08:19;;;;;;;2.40;1.00;;;;;;;6.59;69.68;99018.30;104836;1271;75009;-26
2022/05/17 00:10:48;;;;;;;2.40;0.70;;;;;;;6.40;70.12;99018.95;104790;1271;73885;-26
2022/05/17 00:13:18;;;;;;;1.50;0.90;;;;;;;6.25;70.66;99019.73;104809;1271;61103;-26
2022/05/17 00:15:48;;;;;;;1.10;0.60;;;;;;;6.14;69.94;99014.48;104749;1274;62191;-26
2022/05/17 00:18:18;;;;;;;1.60;0.90;;;;;;;6.61;69.68;99012.81;104900;1271;75623;-27
2022/05/17 00:20:48;;;;;;;5.70;1.10;;;;;;;7.22;68.21;99020.33;104919;1271;74732;-27
2022/05/17 00:23:17;;;;;;;1.90;0.80;;;;;;;7.35;67.36;99012.27;104843;1271;75911;-26
2022/05/17 00:25:47;;;;;;;3.00;0.90;;;;;;;7.26;67.07;99009.72;104916;1271;61859;-27
2022/05/17 00:28:19;;;;;;;1.60;1.00;;;;;;;7.13;67.13;99006.64;104779;1271;62041;-26
2022/05/17 00:30:48;;;;;;;2.80;1.10;;;;;;;6.98;67.24;99008.65;104718;1271;75474;-27
2022/05/17 00:33:17;;;;;;;3.60;1.10;;;;;;;6.84;67.22;99000.60;104679;1272;76012;-26
2022/05/17 00:35:46;;;;;;;2.00;0.90;;;;;;;6.66;67.81;99001.44;105068;1271;73174;-26
2022/05/17 00:38:15;;;;;;;4.30;1.00;;;;;;;6.43;68.49;99000.00;104959;1271;61124;-26
2022/05/17 00:40:44;;;;;;;2.00;1.10;;;;;;;6.21;68.70;98999.71;104780;1272;62315;-26
2022/05/17 00:43:14;;;;;;;1.90;1.00;;;;;;;5.98;69.48;98994.04;104926;1271;73884;-26
2022/05/17 00:45:46;;;;;;;1.00;0.60;;;;;;;5.80;70.12;98997.05;104642;1274;75059;-26
2022/05/17 00:48:15;;;;;;;1.50;0.80;;;;;;;6.19;70.63;98997.07;104623;1271;74398;-26
2022/05/17 00:50:48;;;;;;;1.30;0.90;;;;;;;6.69;69.61;98995.05;104836;1272;61156;-26
2022/05/17 00:53:23;;;;;;;1.30;0.60;;;;;;;6.75;68.80;98991.71;104857;1272;61161;-26
2022/05/17 00:55:52;;;;;;;1.50;1.00;;;;;;;6.54;69.25;98991.19;104831;1271;74329;-26
2022/05/17 00:58:45;;;;;;;1.40;0.80;;;;;;;6.28;69.97;98990.46;104835;1271;75980;-26
2022/05/17 01:01:17;;;;;;;4.30;1.10;;;;;;;5.97;70.37;98984.62;104756;1274;74374;-26
2022/05/17 01:04:06;;;;;;;1.30;0.90;;;;;;;5.70;71.66;98985.23;104678;1271;62014;-26
2022/05/17 01:06:39;;;;;;;2.30;1.10;;;;;;;5.39;72.98;98990.09;105158;1271;62032;-26
2022/05/17 01:09:08;;;;;;;;;;;;;;;5.11;73.56;98988.50;104790;1271;74612;-26
2022/05/17 01:11:49;;;;;;;2.30;1.00;;;;;;;4.92;73.72;98986.84;105131;1271;76020;-26
2022/05/17 01:17:06;;;;;;;2.20;0.90;;;;;;;5.28;73.41;98977.11;105126;1271;61397;-26
2022/05/17 01:19:39;;;;;;;9.80;1.30;;;;;;;5.82;71.65;98975.74;104920;1271;62254;-26
2022/05/17 01:22:09;;;;;;;;;;;;;;;5.85;70.88;98975.04;104677;1271;75618;-26
2022/05/17 01:24:38;;;;;;;1.30;0.70;;;;;;;5.60;70.88;98968.64;104787;1272;75997;-26
2022/05/17 01:27:17;;;;;;;8.20;1.30;;;;;;;5.32;70.72;98967.24;104974;1272;73328;-26
2022/05/17 01:29:47;;;;;;;1.60;1.10;;;;;;;5.05;71.02;98959.91;104813;1274;61042;-26
2022/05/17 01:32:16;;;;;;;1.60;0.70;;;;;;;4.87;72.03;98961.33;104797;1271;61802;-26
2022/05/17 01:34:45;;;;;;;1.20;0.90;;;;;;;4.63;72.95;98962.58;104953;1271;75285;-26
2022/05/17 01:37:14;;;;;;;4.50;1.00;;;;;;;4.36;73.21;98963.38;104931;1271;75691;-26
2022/05/17 01:39:44;;;;;;;1.20;0.70;;;;;;;4.16;73.78;98957.64;104814;1274;73400;-26
2022/05/17 01:42:14;;;;;;;0.80;0.80;;;;;;;4.64;73.08;98955.98;104781;1271;62303;-26
2022/05/17 01:44:43;;;;;;;2.40;1.10;;;;;;;5.27;71.95;98952.77;104823;1271;61951;-26
2022/05/17 01:47:15;;;;;;;1.20;0.90;;;;;;;5.42;71.28;98949.64;104808;1271;75510;-26
2022/05/17 01:49:44;;;;;;;3.90;1.20;;;;;;;5.34;70.66;98948.56;105023;1271;75000;-26
2022/05/17 01:52:13;;;;;;;2.10;1.10;;;;;;;5.19;70.68;98948.08;105129;1271;74691;-26
2022/05/17 01:54:42;;;;;;;3.30;1.30;;;;;;;4.99;71.62;98943.42;104886;1271;61156;-26
2022/05/17 01:57:11;;;;;;;2.00;1.00;;;;;;;4.77;72.45;98941.95;104829;1271;61054;-26
2022/05/17 01:59:40;;;;;;;2.20;1.60;;;;;;;4.61;71.80;98941.73;104745;1274;75470;-26
2022/05/17 02:02:09;;;;;;;1.70;1.00;;;;;;;4.48;72.14;98941.92;104836;1271;76075;-26
2022/05/17 02:04:38;;;;;;;1.40;0.80;;;;;;;4.39;72.87;98938.16;104821;1271;74680;-26
2022/05/17 02:07:09;;;;;;;3.80;1.00;;;;;;;4.91;72.79;98936.48;104750;1274;62103;-26
2022/05/17 02:09:38;;;;;;;3.20;1.00;;;;;;;5.55;70.79;98932.92;104990;1271;61026;-26
2022/05/17 02:12:09;;;;;;;1.50;1.00;;;;;;;5.61;69.81;98930.70;104900;1274;74556;-26
2022/05/17 02:14:37;;;;;;;1.70;0.90;;;;;;;5.45;69.83;98928.41;104709;1274;75884;-26
2022/05/17 02:17:06;;;;;;;1.40;0.90;;;;;;;5.18;70.87;98930.91;104900;1271;74459;-27
2022/05/17 02:19:35;;;;;;;1.50;1.00;;;;;;;4.94;71.26;98932.38;104869;1274;61420;-26
2022/05/17 02:22:04;;;;;;;3.80;0.90;;;;;;;4.66;72.19;98935.55;104911;1271;61888;-26
2022/05/17 02:24:33;;;;;;;2.70;1.00;;;;;;;4.41;72.34;98932.17;104737;1274;75507;-26
2022/05/17 02:27:04;;;;;;;1.70;0.90;;;;;;;4.24;72.94;98934.15;104894;1271;75949;-26
2022/05/17 02:29:33;;;;;;;1.20;0.70;;;;;;;4.12;72.93;98933.64;104731;1274;74194;-26
2022/05/17 02:32:02;;;;;;;1.60;0.70;;;;;;;4.64;73.35;98933.96;104837;1272;61147;-26
2022/05/17 02:34:32;;;;;;;2.80;1.10;;;;;;;5.25;71.75;98929.98;104630;1271;61025;-26
2022/05/17 02:37:01;;;;;;;2.30;0.70;;;;;;;5.36;71.04;98930.04;104804;1271;74555;-26
2022/05/17 02:39:30;;;;;;;1.70;1.10;;;;;;;5.23;71.05;98934.41;104858;1271;75979;-26
2022/05/17 02:41:59;;;;;;;1.90;1.20;;;;;;;5.07;71.30;98933.15;104899;1271;73493;-27
2022/05/17 02:44:28;;;;;;;1.40;1.10;;;;;;;4.88;71.59;98937.02;104882;1271;62121;-26
2022/05/17 02:46:57;;;;;;;1.10;0.90;;;;;;;4.67;72.16;98933.05;104820;1272;61181;-26
2022/05/17 02:49:26;;;;;;;5.10;1.30;;;;;;;4.42;73.34;98936.27;104859;1271;75455;-26
2022/05/17 02:51:55;;;;;;;2.90;0.70;;;;;;;4.32;74.40;98931.67;104964;1271;74565;-26
2022/05/17 02:54:23;;;;;;;1.20;0.90;;;;;;;4.97;73.65;98930.27;104904;1271;74340;-26
2022/05/17 02:56:52;;;;;;;0.80;0.80;;;;;;;5.97;70.94;98930.49;104855;1271;62778;-26
2022/05/17 02:59:22;;;;;;;2.10;0.80;;;;;;;6.57;68.71;98932.16;104796;1274;63672;-26
2022/05/17 03:01:50;;;;;;;1.20;0.80;;;;;;;6.91;66.92;98927.34;104837;1274;75525;-26
2022/05/17 03:04:19;;;;;;;1.80;1.00;;;;;;;7.08;65.86;98929.45;104819;1271;73796;-26
2022/05/17 03:06:49;;;;;;;5.40;1.50;;;;;;;7.25;65.50;98930.52;104789;1271;73405;-26
2022/05/17 03:09:18;;;;;;;1.30;1.00;;;;;;;7.48;65.03;98928.56;104914;1271;61872;-26
2022/05/17 03:11:46;;;;;;;1.70;1.20;;;;;;;7.67;64.41;98924.98;104986;1271;61996;-26
2022/05/17 03:14:17;;;;;;;3.00;1.10;;;;;;;7.86;63.78;98928.02;104893;1271;74212;-26
2022/05/17 03:16:46;;;;;;;2.10;1.20;;;;;;;8.04;63.13;98926.14;104959;1271;75959;-26
2022/05/17 03:19:17;;;;;;;2.40;1.20;;;;;;;8.17;63.33;98930.03;104946;1272;74630;-26
2022/05/17 03:21:47;;;;;;;2.10;1.10;;;;;;;8.36;63.33;98928.23;104720;1271;61785;-26
2022/05/17 03:24:16;;;;;;;1.70;1.10;;;;;;;8.35;63.80;98925.17;104683;1271;61725;-26
2022/05/17 03:27:08;;;;;;;1.60;1.10;;;;;;;8.81;63.61;98920.34;104899;1271;75624;-26
2022/05/17 03:29:39;;;;;;;1.50;1.00;;;;;;;9.26;62.72;98923.02;105156;1271;75969;-26
2022/05/17 03:32:08;;;;;;;1.30;1.10;;;;;;;9.29;61.71;98926.40;105152;1271;74524;-26
2022/05/17 03:34:37;;;;;;;2.30;1.50;;;;;;;9.04;61.40;98922.21;104692;1274;61064;-26
2022/05/17 03:37:06;;;;;;;2.40;1.30;;;;;;;8.75;61.94;98925.48;104845;1274;61442;-26
2022/05/17 03:39:35;;;;;;;1.50;1.00;;;;;;;8.45;62.60;98925.65;105130;1271;75696;-26
2022/05/17 03:42:08;;;;;;;4.50;1.70;;;;;;;8.25;63.16;98927.95;104996;1271;76280;-26
2022/05/17 03:44:39;;;;;;;2.60;1.50;;;;;;;8.20;63.48;98922.59;104811;1271;73384;-26
2022/05/17 03:47:08;;;;;;;2.70;1.70;;;;;;;8.22;63.63;98922.05;104996;1272;61857;-26
2022/05/17 03:49:39;;;;;;;2.30;1.80;;;;;;;8.29;63.80;98929.70;104702;1272;588530;-25
2022/05/17 03:52:09;;;;;;;3.90;2.10;;;;;;;8.33;64.55;98929.94;105030;1271;75269;-25
2022/05/17 03:54:38;;;;;;;3.70;1.60;;;;;;;8.32;64.91;98929.86;104749;1274;74775;-25
2022/05/17 03:57:07;;;;;;;2.80;1.30;;;;;;;8.34;65.39;98935.60;104720;1274;73391;-25
2022/05/17 03:59:37;;;;;;;8.20;1.50;;;;;;;8.41;64.48;98934.88;104827;1271;61157;-25
2022/05/17 04:02:06;;;;;;;3.70;1.70;;;;;;;8.46;64.98;98935.52;104908;1271;60986;-25
2022/05/17 04:04:35;;;;;;;1.20;1.00;;;;;;;8.50;66.52;98935.84;104827;1274;75303;-25
2022/05/17 04:07:04;;;;;;;2.90;1.60;;;;;;;9.04;65.27;98933.34;104889;1271;75833;-25
2022/05/17 04:09:34;;;;;;;2.90;1.90;;;;;;;9.92;63.50;98934.61;104800;1271;73253;-25
2022/05/17 04:12:04;;;;;;;5.80;2.50;;;;;;;10.35;62.68;98933.40;104904;1271;61255;-25
2022/05/17 04:14:33;;;;;;;4.00;1.90;;;;;;;10.51;62.59;98934.91;104726;1274;61097;-25
2022/05/17 04:17:03;;;;;;;3.70;2.00;;;;;;;10.58;60.49;98940.73;104822;1271;75373;-25
2022/05/17 04:19:32;;;;;;;3.80;1.70;;;;;;;10.68;59.83;98939.54;104864;1271;74854;-25
2022/05/17 04:22:05;;;;;;;3.10;2.00;;;;;;;10.83;59.18;98941.27;104878;1272;74168;-26
2022/05/17 04:24:34;;;;;;;2.30;1.50;;;;;;;10.99;58.27;98945.31;105043;1272;61158;-25
2022/05/17 04:27:04;;;;;;;5.40;1.70;;;;;;;11.16;57.83;98945.44;105105;1271;63656;-25
2022/05/17 04:29:33;;;;;;;4.00;2.20;;;;;;;11.22;56.81;98945.63;104767;1271;74511;-25
2022/05/17 04:32:04;;;;;;;2.70;1.60;;;;;;;11.33;57.79;98943.70;104777;1272;76041;-25
2022/05/17 04:34:33;;;;;;;3.00;1.90;;;;;;;11.35;58.99;98946.66;104795;1271;74706;-26
2022/05/17 04:37:03;;;;;;;2.10;1.90;;;;;;;11.46;58.01;98946.78;105057;1274;62060;-25
2022/05/17 04:39:33;;;;;;;3.40;1.40;;;;;;;11.23;56.88;98947.16;104768;1272;61463;-25
2022/05/17 04:42:01;;;;;;;2.60;1.80;;;;;;;11.21;56.75;98941.23;104826;1271;75518;-25
2022/05/17 04:44:30;;;;;;;1.80;1.30;;;;;;;11.28;57.16;98945.26;104817;1273;76030;-25
2022/05/17 04:46:59;;;;;;;2.20;1.50;;;;;;;11.24;56.97;98946.51;104818;1271;74319;-26
2022/05/17 04:49:29;;;;;;;1.70;1.40;;;;;;;11.35;57.58;98943.17;104935;1271;60988;-25
2022/05/17 04:51:58;;;;;;;2.50;1.60;;;;;;;11.47;56.97;98942.61;104676;1271;61090;-25
2022/05/17 04:54:28;;;;;;;2.30;1.60;;;;;;;11.58;56.96;98940.27;104788;1271;75601;-25
2022/05/17 04:56:59;;;;;;;5.60;1.50;;;;;;;11.79;56.72;98938.11;104903;1271;75781;-25
2022/05/17 04:59:29;;;;;;;2.70;1.30;;;;;;;11.96;55.09;98936.95;104676;1271;72608;-26
2022/05/17 05:01:58;;;;;;;1.60;1.10;;;;;;;12.15;55.24;98936.71;104822;1271;61146;-25
2022/05/17 05:04:27;;;;;;;3.10;1.10;;;;;;;12.43;53.59;98935.10;104822;1271;62218;-25
2022/05/17 05:06:57;;;;;;;2.70;1.10;;;;;;;12.63;52.93;98929.26;104794;1271;75423;-25
2022/05/17 05:09:26;;;;;;;2.20;1.00;;;;;;;12.90;53.31;98923.31;105141;1271;74913;-25
2022/05/17 05:11:55;;;;;;;1.70;0.80;;;;;;;13.07;51.30;98924.05;104902;1272;74462;-25
2022/05/17 05:15:42;;;;;;;10.40;1.10;;;;;;;13.32;50.24;98919.11;102177;1304;599501;-24
2022/05/17 05:18:11;;;;;;;1.80;0.80;;;;;;;13.58;47.57;98914.22;104421;1284;61946;-24
2022/05/17 05:20:44;;;;;;;2.30;1.30;;;;;;;13.77;46.46;98915.39;104318;1284;62099;-25
2022/05/17 05:23:13;;;;;;;2.30;0.90;;;;;;;13.82;46.54;98920.42;104110;1284;73698;-26
2022/05/17 05:25:42;;;;;;;3.00;0.80;;;;;;;13.80;45.40;98916.34;104026;1284;74770;-26
2022/05/17 05:28:12;;;;;;;1.40;0.80;;;;;;;13.85;44.81;98921.20;103480;1284;424822;-26
2022/05/17 05:30:41;;;;;;;2.10;1.00;;;;;;;14.04;43.74;98920.45;104131;1284;61134;-26
2022/05/17 05:33:10;;;;;;;79.00;4.80;;;;;;;13.98;43.88;98920.16;104252;1281;61390;-26
2022/05/17 05:35:41;;;;;;;2.00;0.90;;;;;;;14.21;44.06;98918.88;104427;1284;72945;-25
2022/05/17 05:38:13;;;;;;;5.40;1.20;;;;;;;14.37;42.11;98916.70;104390;1281;76278;-27
2022/05/17 05:40:44;;;;;;;6.30;1.10;;;;;;;14.29;41.90;98913.98;104463;1284;74600;-26
2022/05/17 05:43:13;;;;;;;3.60;1.10;;;;;;;14.39;42.07;98913.27;104312;1282;62043;-28
2022/05/17 05:45:42;;;;;;;1.80;1.00;;;;;;;14.56;41.39;98915.27;104528;1284;61077;-27
2022/05/17 05:48:11;;;;;;;52.10;3.40;;;;;;;14.51;40.12;98908.81;104531;1284;73718;-26
2022/05/17 05:50:40;;;;;;;1.20;0.90;;;;;;;14.41;40.57;98905.83;104442;1283;75840;-28
2022/05/17 05:53:12;;;;;;;2.20;0.90;;;;;;;14.36;41.31;98904.71;104484;1283;75002;-27
2022/05/17 05:55:41;;;;;;;1.90;0.80;;;;;;;14.48;41.05;98908.08;103934;1284;61223;-28
2022/05/17 05:58:10;;;;;;;2.70;0.90;;;;;;;14.63;41.21;98902.90;104401;1284;61936;-26
2022/05/17 06:00:40;;;;;;;2.10;0.70;;;;;;;14.86;40.00;98898.39;104437;1284;74696;-25
2022/05/17 06:03:09;;;;;;;1.60;0.70;;;;;;;14.97;39.29;98895.18;104476;1282;75985;-26
2022/05/17 06:05:38;;;;;;;2.00;0.90;;;;;;;14.93;39.34;98888.62;104438;1284;74337;-26
2022/05/17 06:08:12;;;;;;;1.50;0.80;;;;;;;15.09;38.92;98891.35;104399;1284;61139;-25
2022/05/17 06:10:41;;;;;;;2.10;0.80;;;;;;;15.11;38.58;98893.41;104139;1284;61988;-25
2022/05/17 06:13:10;;;;;;;2.10;0.80;;;;;;;15.18;38.99;98890.80;104516;1284;74136;-26
2022/05/17 06:15:40;;;;;;;5.10;1.00;;;;;;;15.38;38.49;98886.58;104191;1284;75010;-26
2022/05/17 06:18:09;;;;;;;3.20;1.00;;;;;;;15.57;37.27;98881.59;103853;1284;75322;-26
2022/05/17 06:20:40;;;;;;;3.20;1.20;;;;;;;15.59;37.74;98883.73;104480;1284;61225;-27
2022/05/17 06:23:10;;;;;;;5.10;1.30;;;;;;;15.60;35.30;98873.44;104499;1284;61817;-27
2022/05/17 06:25:39;;;;;;;5.90;1.30;;;;;;;15.57;34.58;98875.55;104474;1283;73735;-26
2022/05/17 06:28:08;;;;;;;3.80;1.20;;;;;;;15.49;35.19;98872.39;104494;1283;75797;-26
2022/05/17 06:30:41;;;;;;;2.20;1.00;;;;;;;15.29;34.92;98873.83;104094;1284;73532;-26
2022/05/17 06:33:12;;;;;;;0.90;0.70;;;;;;;15.37;35.40;98868.66;104141;1283;61384;-28
2022/05/17 06:35:43;;;;;;;3.40;0.80;;;;;;;15.66;36.59;98871.30;104181;1284;61086;-26
2022/05/17 06:38:13;;;;;;;2.20;0.70;;;;;;;15.86;36.43;98875.15;103962;1286;74582;-25
2022/05/17 06:40:45;;;;;;;1.50;0.60;;;;;;;15.71;35.25;98869.67;104440;1284;76004;-26
2022/05/17 06:43:14;;;;;;;2.00;0.80;;;;;;;15.78;35.69;98872.80;104277;1283;74468;-26
2022/05/17 06:45:44;;;;;;;2.80;0.60;;;;;;;15.77;35.36;98867.52;104470;1283;61183;-27
2022/05/17 06:48:14;;;;;;;3.80;0.90;;;;;;;15.99;34.39;98853.59;104359;1284;61344;-26
2022/05/17 06:50:43;;;;;;;1.40;0.70;;;;;;;15.75;36.06;98863.22;104478;1284;74869;-26
2022/05/17 06:53:13;;;;;;;2.50;0.70;;;;;;;15.98;35.46;98866.29;104231;1283;76033;-26
2022/05/17 06:55:42;;;;;;;3.00;0.70;;;;;;;16.05;35.50;98859.85;104091;1284;74537;-26
2022/05/17 06:58:16;;;;;;;4.70;1.60;;;;;;;15.95;35.64;98868.29;104278;1284;62089;-26
2022/05/17 07:00:45;;;;;;;2.40;1.20;;;;;;;15.93;36.03;98868.10;104493;1284;61011;-24
2022/05/17 07:03:14;;;;;;;1.00;0.70;;;;;;;16.01;36.15;98867.09;104347;1284;74744;-24
2022/05/17 07:05:43;;;;;;;5.10;0.70;;;;;;;15.95;36.27;98866.33;104487;1283;74989;-25
2022/05/17 07:08:12;;;;;;;2.10;0.70;;;;;;;16.20;37.47;98862.38;104363;1284;74431;-26
2022/05/17 07:13:28;;;;;;;2.70;1.70;;;;;;;16.47;35.34;98863.39;104329;1284;62113;-26
2022/05/17 07:15:57;;;;;;;1.80;0.80;;;;;;;16.14;34.48;98854.20;104450;1284;74652;-27
2022/05/17 07:18:28;;;;;;;2.30;0.70;;;;;;;16.08;35.69;98849.84;104366;1284;76038;-27
2022/05/17 07:20:58;;;;;;;2.30;0.80;;;;;;;16.28;35.51;98851.79;104447;1284;74279;-26
2022/05/17 07:23:27;;;;;;;4.20;2.50;;;;;;;16.48;35.95;98853.33;104462;1284;61128;-27
2022/05/17 07:25:56;;;;;;;0.80;0.50;;;;;;;16.58;36.07;98851.30;104387;1284;62124;-24
2022/05/17 07:28:25;;;;;;;0.80;0.70;;;;;;;16.71;34.88;98849.35;104191;1285;74506;-25
2022/05/17 07:30:55;;;;;;;2.10;0.90;;;;;;;16.61;36.25;98849.94;104470;1284;76025;-26
2022/05/17 07:33:27;;;;;;;11.60;6.00;;;;;;;16.79;35.57;98847.86;104147;1284;72862;-26
2022/05/17 07:35:56;;;;;;;3.30;0.80;;;;;;;16.49;35.41;98844.91;104171;1284;61158;-26
2022/05/17 07:38:25;;;;;;;17.80;4.10;;;;;;;16.58;36.37;98851.45;104415;1282;62432;-26
2022/05/17 07:40:54;;;;;;;6.50;1.30;;;;;;;16.59;35.71;98847.00;104321;1284;74881;-26
2022/05/17 07:43:23;;;;;;;10.10;3.90;;;;;;;16.45;35.78;98856.88;104351;1284;75777;-26
2022/05/17 07:45:53;;;;;;;2.10;1.30;;;;;;;16.66;36.53;98855.34;104130;1284;74407;-24
2022/05/17 07:48:23;;;;;;;0.60;0.40;;;;;;;17.00;36.12;98841.33;104118;1283;61188;-25
2022/05/17 07:50:52;;;;;;;0.50;0.40;;;;;;;16.85;34.99;98828.86;103733;1287;62189;-24
2022/05/17 07:53:21;;;;;;;1.10;0.60;;;;;;;16.90;34.62;98840.31;104136;1284;74860;-25
2022/05/17 07:55:50;;;;;;;0.90;0.50;;;;;;;16.99;34.56;98824.02;104125;1284;76866;-25
2022/05/17 07:58:20;;;;;;;1.40;0.60;;;;;;;17.27;34.71;98826.91;104045;1284;74825;-24
2022/05/17 08:00:49;;;;;;;4.90;2.40;;;;;;;17.24;35.40;98833.74;104057;1282;61105;-25
2022/05/17 08:03:18;;;;;;;43.50;26.30;;;;;;;17.01;35.26;98829.05;104067;1284;63864;-24
2022/05/17 08:05:48;;;;;;;8.70;3.50;;;;;;;16.82;34.66;98826.10;104108;1284;74981;-24
2022/05/17 08:08:17;;;;;;;45.00;24.50;;;;;;;16.82;34.96;98824.48;104041;1284;76006;-25
2022/05/17 08:10:47;;;;;;;32.00;22.10;;;;;;;16.84;34.59;98813.77;104061;1284;74417;-24
2022/05/17 08:13:16;;;;;;;51.30;36.20;;;;;;;16.74;35.41;98814.70;104059;1285;61173;-25
2022/05/17 08:15:48;;;;;;;112.30;68.30;;;;;;;16.48;35.66;98815.16;103875;1285;61246;-25
2022/05/17 08:18:17;;;;;;;79.40;52.00;;;;;;;16.43;35.43;98812.60;104092;1284;74754;-25
2022/05/17 08:20:47;;;;;;;81.10;49.00;;;;;;;16.60;36.30;98811.30;103896;1287;76100;-24
2022/05/17 08:23:16;;;;;;;3.70;2.30;;;;;;;16.67;35.56;98798.13;103783;1284;73370;-24
2022/05/17 08:28:33;;;;;;;1.70;0.60;;;;;;;16.80;35.27;98792.25;104259;1284;61921;-25
2022/05/17 08:31:02;;;;;;;1.70;0.70;;;;;;;17.33;34.31;98782.21;104174;1284;73720;-24
2022/05/17 08:33:33;;;;;;;16.20;9.10;;;;;;;17.11;34.14;98789.98;104613;1274;76144;-24
2022/05/17 08:36:13;;;;;;;1.20;0.70;;;;;;;17.25;33.99;98798.38;104603;1274;72383;-24
2022/05/17 08:38:43;;;;;;;2.50;0.70;;;;;;;17.73;33.23;98792.55;104315;1275;61118;-24
2022/05/17 08:41:45;;;;;;;2.80;2.00;;;;;;;17.42;34.38;98795.16;104608;1274;61032;-24
2022/05/17 08:44:19;;;;;;;5.70;0.80;;;;;;;17.30;33.74;98774.14;104643;1275;73704;-24
2022/05/17 08:47:11;;;;;;;12.00;1.80;;;;;;;16.72;35.09;98801.80;104526;1278;76025;-24
2022/05/17 08:50:05;;;;;;;2.60;1.10;;;;;;;17.05;35.27;98792.59;104528;1275;74362;-24
2022/05/17 08:52:36;;;;;;;58.80;38.60;;;;;;;17.19;35.76;98793.18;104592;1274;62290;-24
2022/05/17 08:55:28;;;;;;;4.60;2.10;;;;;;;17.16;36.00;98793.00;104634;1275;62024;-25
2022/05/17 08:58:19;;;;;;;86.10;57.70;;;;;;;17.53;34.65;98799.56;104860;1274;73692;-25
2022/05/17 09:00:54;;;;;;;75.80;54.20;;;;;;;17.70;34.43;98781.92;104542;1275;75736;-25
2022/05/17 09:03:28;;;;;;;105.90;77.90;;;;;;;17.68;34.48;98783.98;104466;1275;72301;-25
2022/05/17 09:06:38;;;;;;;58.30;36.80;;;;;;;17.47;34.22;98788.52;104619;1274;61066;-25
2022/05/17 09:09:19;;;;;;;61.90;43.50;;;;;;;17.20;35.66;98780.02;104543;1274;62042;-25
2022/05/17 09:12:08;;;;;;;3.70;2.10;;;;;;;17.58;34.91;98772.19;104557;1275;74684;-25
2022/05/17 09:14:40;;;;;;;84.30;58.00;;;;;;;17.84;35.04;98777.06;104587;1277;75807;-25
2022/05/17 09:17:16;;;;;;;32.90;21.70;;;;;;;17.79;34.28;98768.48;104327;1280;74194;-25
2022/05/17 09:19:48;;;;;;;50.70;34.70;;;;;;;18.10;33.25;98773.77;104575;1277;61157;-25
2022/05/17 09:22:42;;;;;;;10.10;7.00;;;;;;;17.73;33.89;98767.80;104317;1277;62287;-25
2022/05/17 09:25:22;;;;;;;138.30;95.80;;;;;;;16.84;34.23;98759.11;104637;1277;74740;-25
2022/05/17 09:27:52;;;;;;;6.30;2.60;;;;;;;17.04;34.06;98765.83;104667;1278;76068;-25
2022/05/17 09:30:21;;;;;;;4.40;2.20;;;;;;;17.40;34.63;98758.20;104668;1277;74485;-25
2022/05/17 09:33:03;;;;;;;20.70;14.30;;;;;;;17.37;34.12;98755.47;104599;1277;61161;-25
2022/05/17 09:35:32;;;;;;;135.00;94.00;;;;;;;17.41;35.15;98767.61;104274;1278;61233;-25
2022/05/17 09:38:03;;;;;;;6.40;3.20;;;;;;;17.72;34.19;98761.98;104378;1277;74872;-25
2022/05/17 09:40:35;;;;;;;23.20;17.30;;;;;;;18.08;35.00;98761.83;104315;1278;76239;-25
2022/05/17 09:43:07;;;;;;;1.70;1.10;;;;;;;17.80;33.54;98746.64;104447;1277;74315;-25
2022/05/17 09:45:46;;;;;;;0.40;0.40;;;;;;;17.80;34.65;98760.40;104276;1277;62189;-25
2022/05/17 09:48:30;;;;;;;10.00;6.50;;;;;;;17.48;34.30;98751.70;104603;1277;60988;-25
2022/05/17 09:54:03;;;;;;;255.90;193.20;;;;;;;17.92;33.44;98753.55;104473;1281;75552;-25
2022/05/17 09:56:32;;;;;;;144.40;106.40;;;;;;;17.50;32.89;98742.98;104594;1277;74092;-25
2022/05/17 09:59:01;;;;;;;98.50;72.00;;;;;;;16.97;33.51;98751.39;104612;1277;61157;-25
2022/05/17 10:01:38;;;;;;;171.80;116.00;;;;;;;17.56;34.55;98746.63;104716;1274;61146;-25
2022/05/17 10:04:12;;;;;;;20.00;11.00;;;;;;;18.07;33.17;98724.80;104500;1275;76162;-25
2022/05/17 10:06:43;;;;;;;88.20;54.50;;;;;;;17.62;33.96;98739.01;104645;1274;74998;-25
2022/05/17 10:09:35;;;;;;;81.00;47.60;;;;;;;17.42;34.52;98741.15;104677;1274;74491;-25
2022/05/17 10:12:13;;;;;;;157.30;106.40;;;;;;;16.96;34.74;98740.23;104693;1274;62350;-25
2022/05/17 10:14:44;;;;;;;168.20;111.20;;;;;;;17.58;32.51;98740.89;104656;1272;61853;-25
2022/05/17 10:17:18;;;;;;;178.20;107.20;;;;;;;17.98;33.06;98729.52;104693;1271;74565;-25
2022/05/17 10:19:52;;;;;;;248.80;158.90;;;;;;;17.74;31.55;98725.27;104703;1271;75940;-25
2022/05/17 10:22:30;;;;;;;260.00;164.60;;;;;;;17.04;32.09;98726.69;104637;1274;74419;-25
2022/05/17 10:25:04;;;;;;;167.40;96.60;;;;;;;16.89;32.79;98723.29;104647;1271;62464;-25
2022/05/17 10:28:03;;;;;;;87.20;47.30;;;;;;;17.65;32.38;98735.72;104651;1271;62073;-25
2022/05/17 10:31:11;;;;;;;7.00;2.50;;;;;;;17.65;31.41;98723.94;105047;1271;74523;-25
2022/05/17 10:33:59;;;;;;;48.10;26.30;;;;;;;17.20;33.00;98713.10;104446;1281;75012;-25
2022/05/17 10:36:35;;;;;;;24.10;13.30;;;;;;;17.20;32.36;98711.07;104336;1278;73400;-25
2022/05/17 10:39:15;;;;;;;248.40;151.30;;;;;;;17.85;32.75;98713.54;104205;1278;61375;-25
2022/05/17 10:41:45;;;;;;;104.00;68.50;;;;;;;17.79;31.54;98696.92;104214;1278;61189;-25
2022/05/17 10:44:20;;;;;;;144.00;84.10;;;;;;;17.28;32.40;98689.63;104430;1277;75566;-25
2022/05/17 10:46:54;;;;;;;50.90;32.30;;;;;;;17.51;33.15;98689.49;104387;1277;76112;-25
2022/05/17 10:49:31;;;;;;;131.60;77.20;;;;;;;17.66;32.82;98699.41;104527;1279;74199;-25
2022/05/17 10:52:16;;;;;;;22.30;11.70;;;;;;;17.74;31.98;98699.11;104484;1278;61088;-25
2022/05/17 10:54:57;;;;;;;31.70;18.50;;;;;;;17.94;32.09;98691.84;104295;1277;61219;-25
2022/05/17 10:58:01;;;;;;;39.40;25.40;;;;;;;18.43;32.83;98678.02;104239;1277;75310;-25
2022/05/17 11:00:41;;;;;;;197.70;118.70;;;;;;;18.17;31.00;98694.23;104247;1277;76233;-25
2022/05/17 11:03:18;;;;;;;128.40;79.90;;;;;;;17.79;30.73;98674.98;104127;1278;73387;-25
2022/05/17 11:05:53;;;;;;;61.00;34.50;;;;;;;17.22;31.15;98690.63;104264;1278;61880;-25
2022/05/17 11:08:32;;;;;;;164.70;99.30;;;;;;;17.64;31.11;98676.17;104530;1274;62014;-25
2022/05/17 11:11:17;;;;;;;80.50;45.20;;;;;;;18.40;31.16;98686.20;104741;1271;75266;-25
2022/05/17 11:14:18;;;;;;;46.10;25.50;;;;;;;18.75;31.07;98665.88;104600;1272;74944;-25
2022/05/17 11:16:57;;;;;;;23.60;12.70;;;;;;;18.77;29.74;98675.11;104708;1274;74356;-25
2022/05/17 11:19:34;;;;;;;22.40;13.40;;;;;;;18.79;29.84;98665.89;104662;1274;61067;-25
2022/05/17 11:22:15;;;;;;;23.60;13.40;;;;;;;18.66;29.77;98670.86;104793;1271;62126;-25
2022/05/17 11:24:56;;;;;;;12.50;6.90;;;;;;;18.26;29.55;98674.72;104842;1274;75417;-25
2022/05/17 11:27:52;;;;;;;28.20;18.00;;;;;;;18.45;30.46;98671.64;104924;1274;75958;-25
2022/05/17 11:30:51;;;;;;;20.70;11.90;;;;;;;18.39;28.82;98654.27;104883;1271;73381;-25
2022/05/17 11:33:25;;;;;;;5.70;1.00;;;;;;;18.38;29.34;98666.13;104993;1271;61900;-25
2022/05/17 11:36:06;;;;;;;14.60;9.80;;;;;;;18.18;29.37;98666.62;104804;1274;62426;-25
2022/05/17 11:38:35;;;;;;;6.80;2.40;;;;;;;18.56;30.83;98663.66;104729;1272;77405;-25
2022/05/17 11:41:16;;;;;;;11.90;1.20;;;;;;;18.59;29.93;98651.76;104808;1271;76068;-25
2022/05/17 11:43:54;;;;;;;5.10;2.10;;;;;;;18.57;28.28;98632.13;104911;1272;74407;-25
2022/05/17 11:46:29;;;;;;;19.70;9.90;;;;;;;18.33;29.30;98649.82;105125;1271;61831;-25
2022/05/17 11:49:18;;;;;;;7.50;2.90;;;;;;;18.28;28.69;98652.02;105040;1272;61016;-25
2022/05/17 11:51:59;;;;;;;15.50;8.50;;;;;;;17.86;28.15;98621.86;105095;1271;75834;-25
2022/05/17 11:54:42;;;;;;;19.20;11.50;;;;;;;18.01;29.18;98642.41;105153;1271;75998;-25
2022/05/17 11:57:17;;;;;;;10.90;4.10;;;;;;;17.95;28.74;98626.90;104836;1271;72364;-25
2022/05/17 11:59:57;;;;;;;13.20;5.40;;;;;;;17.98;29.27;98624.45;104636;1274;61790;-26
2022/05/17 12:02:41;;;;;;;0.60;0.40;;;;;;;17.92;29.10;98619.33;104633;1277;61115;-28